RYR353 UNNT-UNEE
Flight info
| Callsign | RYR353 |
|---|---|
| Flight time | 0h 30m |
| Altitude | 19000 |
| Route | OGATI1L OGATI OGATI4G |
| Aircraft | B738/M-SDGIJ1LRWY/SB1 |
Departure
| Time | 2026-05-05 20:32 |
|---|---|
| Airport | Novosibirsk Tolmachevo Airport (UNNT) |
Arrival
| Time | 2026-05-05 21:03 |
|---|---|
| Airport | Alexei Leonov Kemerovo International Airport (UNEE) |
| Time | Latitude | Longitude | Altitude | Speed | Heading |
|---|---|---|---|---|---|
| 2026-05-05 19:54 | 55.00997 | 82.65994 | 356 ft | 0 kts | 171° |
| 2026-05-05 20:19 | 55.00980 | 82.65998 | 357 ft | 6 kts | 173° |
| 2026-05-05 20:20 | 55.00945 | 82.65943 | 358 ft | 11 kts | 253° |
| 2026-05-05 20:20 | 55.00922 | 82.65717 | 357 ft | 23 kts | 261° |
| 2026-05-05 20:20 | 55.00894 | 82.65433 | 355 ft | 24 kts | 260° |
| 2026-05-05 20:20 | 55.00886 | 82.65276 | 353 ft | 4 kts | 268° |
| 2026-05-05 20:21 | 55.00884 | 82.65211 | 353 ft | 7 kts | 267° |
| 2026-05-05 20:21 | 55.00877 | 82.65109 | 353 ft | 10 kts | 259° |
| 2026-05-05 20:21 | 55.00874 | 82.64970 | 353 ft | 11 kts | 284° |
| 2026-05-05 20:21 | 55.00893 | 82.64836 | 353 ft | 11 kts | 283° |
| 2026-05-05 20:22 | 55.00913 | 82.64683 | 353 ft | 17 kts | 283° |
| 2026-05-05 20:22 | 55.00937 | 82.64499 | 353 ft | 14 kts | 282° |
| 2026-05-05 20:22 | 55.00957 | 82.64312 | 353 ft | 13 kts | 272° |
| 2026-05-05 20:22 | 55.00944 | 82.64113 | 353 ft | 17 kts | 262° |
| 2026-05-05 20:23 | 55.00927 | 82.63909 | 353 ft | 17 kts | 261° |
| 2026-05-05 20:23 | 55.00906 | 82.63693 | 353 ft | 19 kts | 261° |
| 2026-05-05 20:23 | 55.00885 | 82.63464 | 353 ft | 18 kts | 261° |
| 2026-05-05 20:23 | 55.00864 | 82.63237 | 353 ft | 18 kts | 261° |
| 2026-05-05 20:24 | 55.00842 | 82.63014 | 353 ft | 18 kts | 261° |
| 2026-05-05 20:24 | 55.00822 | 82.62779 | 353 ft | 23 kts | 263° |
| 2026-05-05 20:24 | 55.00797 | 82.62487 | 353 ft | 20 kts | 261° |
| 2026-05-05 20:24 | 55.00773 | 82.62225 | 354 ft | 23 kts | 261° |
| 2026-05-05 20:25 | 55.00749 | 82.61955 | 356 ft | 22 kts | 262° |
| 2026-05-05 20:25 | 55.00725 | 82.61683 | 355 ft | 22 kts | 261° |
| 2026-05-05 20:25 | 55.00701 | 82.61412 | 354 ft | 22 kts | 261° |
| 2026-05-05 20:25 | 55.00674 | 82.61138 | 354 ft | 23 kts | 261° |
| 2026-05-05 20:26 | 55.00648 | 82.60866 | 356 ft | 23 kts | 268° |
| 2026-05-05 20:26 | 55.00712 | 82.60570 | 356 ft | 30 kts | 309° |
| 2026-05-05 20:26 | 55.00864 | 82.60312 | 356 ft | 30 kts | 342° |
| 2026-05-05 20:26 | 55.01043 | 82.60252 | 356 ft | 24 kts | 350° |
| 2026-05-05 20:27 | 55.01215 | 82.60198 | 355 ft | 26 kts | 351° |
| 2026-05-05 20:27 | 55.01362 | 82.60155 | 356 ft | 22 kts | 350° |
| 2026-05-05 20:27 | 55.01534 | 82.60101 | 356 ft | 24 kts | 350° |
| 2026-05-05 20:27 | 55.01694 | 82.60053 | 356 ft | 22 kts | 349° |
| 2026-05-05 20:28 | 55.01857 | 82.60004 | 356 ft | 25 kts | 351° |
| 2026-05-05 20:28 | 55.02012 | 82.59955 | 355 ft | 18 kts | 350° |
| 2026-05-05 20:28 | 55.02146 | 82.59914 | 354 ft | 21 kts | 350° |
| 2026-05-05 20:28 | 55.02314 | 82.59857 | 353 ft | 26 kts | 349° |
| 2026-05-05 20:29 | 55.02501 | 82.59813 | 353 ft | 25 kts | 14° |
| 2026-05-05 20:29 | 55.02679 | 82.59974 | 353 ft | 32 kts | 27° |
| 2026-05-05 20:29 | 55.02905 | 82.60044 | 353 ft | 36 kts | 355° |
| 2026-05-05 20:29 | 55.03176 | 82.59967 | 353 ft | 39 kts | 353° |
| 2026-05-05 20:30 | 55.03447 | 82.59885 | 353 ft | 39 kts | 351° |
| 2026-05-05 20:30 | 55.03735 | 82.59777 | 353 ft | 42 kts | 350° |
| 2026-05-05 20:30 | 55.04027 | 82.59699 | 353 ft | 42 kts | 354° |
| 2026-05-05 20:30 | 55.04314 | 82.59628 | 353 ft | 41 kts | 350° |
| 2026-05-05 20:31 | 55.04566 | 82.59554 | 353 ft | 22 kts | 352° |
| 2026-05-05 20:31 | 55.04613 | 82.59531 | 352 ft | 1 kts | 236° |
| 2026-05-05 20:31 | 55.04599 | 82.59530 | 352 ft | 1 kts | 172° |
| 2026-05-05 20:31 | 55.04518 | 82.59555 | 353 ft | 40 kts | 170° |
| 2026-05-05 20:32 | 55.04012 | 82.59712 | 353 ft | 106 kts | 169° |
| 2026-05-05 20:32 | 55.03092 | 82.59985 | 395 ft | 156 kts | 169° |
| 2026-05-05 20:32 | 55.02051 | 82.60268 | 1029 ft | 154 kts | 169° |
| 2026-05-05 20:32 | 55.00962 | 82.60593 | 1600 ft | 162 kts | 169° |
| 2026-05-05 20:33 | 54.99854 | 82.60949 | 2201 ft | 167 kts | 170° |
| 2026-05-05 20:33 | 54.98710 | 82.61293 | 2789 ft | 172 kts | 173° |
| 2026-05-05 20:33 | 54.97487 | 82.61658 | 3254 ft | 186 kts | 173° |
| 2026-05-05 20:33 | 54.96178 | 82.62065 | 3737 ft | 200 kts | 173° |
| 2026-05-05 20:34 | 54.94750 | 82.62496 | 4178 ft | 216 kts | 174° |
| 2026-05-05 20:34 | 54.93248 | 82.63241 | 4604 ft | 238 kts | 158° |
| 2026-05-05 20:34 | 54.91836 | 82.64928 | 5035 ft | 259 kts | 145° |
| 2026-05-05 20:34 | 54.90424 | 82.67042 | 5576 ft | 273 kts | 144° |
| 2026-05-05 20:35 | 54.88973 | 82.69183 | 6245 ft | 279 kts | 146° |
| 2026-05-05 20:35 | 54.87474 | 82.71355 | 6925 ft | 287 kts | 144° |
| 2026-05-05 20:35 | 54.86149 | 82.73967 | 7658 ft | 300 kts | 127° |
| 2026-05-05 20:35 | 54.85427 | 82.77420 | 8395 ft | 314 kts | 100° |
| 2026-05-05 20:36 | 54.85556 | 82.81210 | 9137 ft | 321 kts | 76° |
| 2026-05-05 20:36 | 54.86309 | 82.84809 | 9925 ft | 324 kts | 64° |
| 2026-05-05 20:36 | 54.87274 | 82.88374 | 10578 ft | 333 kts | 62° |
| 2026-05-05 20:36 | 54.88317 | 82.92052 | 11037 ft | 350 kts | 61° |
| 2026-05-05 20:37 | 54.89427 | 82.95966 | 11510 ft | 365 kts | 62° |
| 2026-05-05 20:37 | 54.90559 | 83.00006 | 11963 ft | 381 kts | 62° |
| 2026-05-05 20:37 | 54.91713 | 83.04174 | 12568 ft | 392 kts | 61° |
| 2026-05-05 20:37 | 54.92916 | 83.08451 | 13311 ft | 397 kts | 59° |
| 2026-05-05 20:38 | 54.94231 | 83.12692 | 14070 ft | 402 kts | 56° |
| 2026-05-05 20:38 | 54.95626 | 83.16827 | 14944 ft | 403 kts | 54° |
| 2026-05-05 20:38 | 54.97085 | 83.20997 | 15786 ft | 406 kts | 54° |
| 2026-05-05 20:38 | 54.98451 | 83.25269 | 16629 ft | 410 kts | 59° |
| 2026-05-05 20:39 | 54.99319 | 83.30052 | 17392 ft | 422 kts | 78° |
| 2026-05-05 20:39 | 54.99248 | 83.35157 | 18150 ft | 430 kts | 97° |
| 2026-05-05 20:39 | 54.98615 | 83.40224 | 18742 ft | 436 kts | 102° |
| 2026-05-05 20:39 | 54.97849 | 83.45369 | 18977 ft | 438 kts | 103° |
| 2026-05-05 20:40 | 54.97075 | 83.50431 | 18965 ft | 437 kts | 103° |
| 2026-05-05 20:40 | 54.96305 | 83.55545 | 18964 ft | 438 kts | 103° |
| 2026-05-05 20:40 | 54.95549 | 83.60654 | 18967 ft | 437 kts | 103° |
| 2026-05-05 20:40 | 54.94809 | 83.65737 | 18964 ft | 434 kts | 103° |
| 2026-05-05 20:41 | 54.94081 | 83.70827 | 18958 ft | 437 kts | 103° |
| 2026-05-05 20:41 | 54.93355 | 83.75936 | 18953 ft | 437 kts | 102° |
| 2026-05-05 20:41 | 54.92643 | 83.81027 | 18951 ft | 434 kts | 101° |
| 2026-05-05 20:41 | 54.92053 | 83.86190 | 18952 ft | 434 kts | 98° |
| 2026-05-05 20:42 | 54.91608 | 83.91376 | 18950 ft | 435 kts | 95° |
| 2026-05-05 20:42 | 54.91237 | 83.96548 | 18948 ft | 434 kts | 95° |
| 2026-05-05 20:42 | 54.90880 | 84.01769 | 18947 ft | 437 kts | 95° |
| 2026-05-05 20:42 | 54.90518 | 84.06995 | 18955 ft | 432 kts | 94° |
| 2026-05-05 20:43 | 54.90148 | 84.12179 | 18954 ft | 433 kts | 95° |
| 2026-05-05 20:43 | 54.89767 | 84.17329 | 18951 ft | 431 kts | 95° |
| 2026-05-05 20:43 | 54.89377 | 84.22437 | 18962 ft | 433 kts | 95° |
| 2026-05-05 20:43 | 54.88972 | 84.27618 | 18966 ft | 432 kts | 95° |
| 2026-05-05 20:44 | 54.88562 | 84.32774 | 18966 ft | 432 kts | 95° |
| 2026-05-05 20:44 | 54.88151 | 84.37892 | 18972 ft | 430 kts | 95° |
| 2026-05-05 20:44 | 54.87735 | 84.43023 | 18981 ft | 430 kts | 95° |
| 2026-05-05 20:44 | 54.87314 | 84.48180 | 18977 ft | 432 kts | 95° |
| 2026-05-05 20:45 | 54.86472 | 84.58451 | 18975 ft | 431 kts | 94° |
| 2026-05-05 20:45 | 54.86205 | 84.63544 | 18975 ft | 427 kts | 88° |
| 2026-05-05 20:45 | 54.86387 | 84.68628 | 18975 ft | 421 kts | 76° |
| 2026-05-05 20:46 | 54.87148 | 84.73493 | 18978 ft | 418 kts | 66° |
| 2026-05-05 20:46 | 54.88151 | 84.78178 | 18981 ft | 414 kts | 63° |
| 2026-05-05 20:46 | 54.89230 | 84.82753 | 18980 ft | 399 kts | 62° |
| 2026-05-05 20:46 | 54.90284 | 84.87087 | 18981 ft | 380 kts | 61° |
| 2026-05-05 20:47 | 54.91291 | 84.91224 | 18983 ft | 368 kts | 61° |
| 2026-05-05 20:47 | 54.92278 | 84.95301 | 18989 ft | 368 kts | 61° |
| 2026-05-05 20:47 | 54.93257 | 84.99384 | 18802 ft | 373 kts | 62° |
| 2026-05-05 20:47 | 54.94241 | 85.03540 | 18411 ft | 371 kts | 62° |
| 2026-05-05 20:48 | 54.95198 | 85.07653 | 17963 ft | 368 kts | 62° |
| 2026-05-05 20:48 | 54.96151 | 85.11804 | 17506 ft | 366 kts | 62° |
| 2026-05-05 20:48 | 54.97084 | 85.15884 | 17050 ft | 363 kts | 62° |
| 2026-05-05 20:48 | 54.98008 | 85.19939 | 16592 ft | 361 kts | 63° |
| 2026-05-05 20:49 | 54.98924 | 85.23964 | 16148 ft | 359 kts | 63° |
| 2026-05-05 20:49 | 54.99834 | 85.27975 | 15697 ft | 357 kts | 63° |
| 2026-05-05 20:49 | 55.00737 | 85.31959 | 15253 ft | 355 kts | 63° |
| 2026-05-05 20:49 | 55.01641 | 85.35961 | 14812 ft | 353 kts | 63° |
| 2026-05-05 20:50 | 55.02525 | 85.39879 | 14373 ft | 351 kts | 63° |
| 2026-05-05 20:50 | 55.03415 | 85.43829 | 13936 ft | 349 kts | 63° |
| 2026-05-05 20:50 | 55.04301 | 85.47777 | 13492 ft | 348 kts | 63° |
| 2026-05-05 20:50 | 55.05167 | 85.51627 | 13065 ft | 346 kts | 63° |
| 2026-05-05 20:51 | 55.06048 | 85.55555 | 12628 ft | 345 kts | 63° |
| 2026-05-05 20:51 | 55.06913 | 85.59425 | 12206 ft | 343 kts | 63° |
| 2026-05-05 20:51 | 55.07772 | 85.63268 | 11773 ft | 342 kts | 63° |
| 2026-05-05 20:51 | 55.08633 | 85.67128 | 11358 ft | 339 kts | 64° |
| 2026-05-05 20:52 | 55.09473 | 85.70915 | 10938 ft | 338 kts | 65° |
| 2026-05-05 20:52 | 55.10320 | 85.74735 | 10527 ft | 336 kts | 65° |
| 2026-05-05 20:52 | 55.11153 | 85.78491 | 10215 ft | 331 kts | 65° |
| 2026-05-05 20:52 | 55.11967 | 85.82175 | 10038 ft | 318 kts | 65° |
| 2026-05-05 20:53 | 55.12737 | 85.85687 | 9748 ft | 309 kts | 65° |
| 2026-05-05 20:53 | 55.13515 | 85.89205 | 9355 ft | 309 kts | 64° |
| 2026-05-05 20:53 | 55.14288 | 85.92663 | 8994 ft | 308 kts | 65° |
| 2026-05-05 20:53 | 55.15057 | 85.96130 | 8642 ft | 306 kts | 65° |
| 2026-05-05 20:54 | 55.15825 | 85.99616 | 8274 ft | 305 kts | 65° |
| 2026-05-05 20:54 | 55.16576 | 86.03052 | 7921 ft | 304 kts | 65° |
| 2026-05-05 20:54 | 55.17333 | 86.06496 | 7559 ft | 303 kts | 65° |
| 2026-05-05 20:54 | 55.18087 | 86.09916 | 7208 ft | 302 kts | 65° |
| 2026-05-05 20:55 | 55.18829 | 86.13286 | 6857 ft | 300 kts | 66° |
| 2026-05-05 20:55 | 55.19574 | 86.16689 | 6506 ft | 298 kts | 66° |
| 2026-05-05 20:55 | 55.20426 | 86.19979 | 6079 ft | 293 kts | 56° |
| 2026-05-05 20:55 | 55.21534 | 86.22874 | 5745 ft | 283 kts | 49° |
| 2026-05-05 20:56 | 55.22727 | 86.25527 | 5424 ft | 274 kts | 47° |
| 2026-05-05 20:56 | 55.23914 | 86.28088 | 5069 ft | 269 kts | 47° |
| 2026-05-05 20:56 | 55.25056 | 86.30607 | 4856 ft | 258 kts | 48° |
| 2026-05-05 20:56 | 55.26128 | 86.33028 | 4686 ft | 248 kts | 48° |
| 2026-05-05 20:57 | 55.27148 | 86.35365 | 4506 ft | 238 kts | 48° |
| 2026-05-05 20:57 | 55.28160 | 86.37614 | 4326 ft | 230 kts | 44° |
| 2026-05-05 20:57 | 55.29328 | 86.39351 | 4073 ft | 218 kts | 21° |
| 2026-05-05 20:57 | 55.30743 | 86.39676 | 3868 ft | 199 kts | 343° |
| 2026-05-05 20:58 | 55.31953 | 86.38692 | 3666 ft | 189 kts | 322° |
| 2026-05-05 20:58 | 55.32877 | 86.37154 | 3432 ft | 176 kts | 303° |
| 2026-05-05 20:58 | 55.33275 | 86.35256 | 3217 ft | 162 kts | 282° |
| 2026-05-05 20:58 | 55.33487 | 86.33366 | 3008 ft | 150 kts | 283° |
| 2026-05-05 20:59 | 55.33735 | 86.31630 | 2852 ft | 147 kts | 284° |
| 2026-05-05 20:59 | 55.33977 | 86.29965 | 2670 ft | 135 kts | 283° |
| 2026-05-05 20:59 | 55.34137 | 86.28358 | 2522 ft | 134 kts | 267° |
| 2026-05-05 20:59 | 55.33731 | 86.26926 | 2513 ft | 136 kts | 233° |
| 2026-05-05 21:00 | 55.33187 | 86.25542 | 2486 ft | 137 kts | 240° |
| 2026-05-05 21:00 | 55.32641 | 86.24153 | 2321 ft | 138 kts | 236° |
| 2026-05-05 21:00 | 55.32079 | 86.22832 | 2150 ft | 135 kts | 235° |
| 2026-05-05 21:00 | 55.31523 | 86.21501 | 1978 ft | 136 kts | 235° |
| 2026-05-05 21:01 | 55.30961 | 86.20161 | 1810 ft | 136 kts | 234° |
| 2026-05-05 21:01 | 55.30401 | 86.18829 | 1637 ft | 136 kts | 234° |
| 2026-05-05 21:01 | 55.29841 | 86.17497 | 1466 ft | 137 kts | 234° |
| 2026-05-05 21:01 | 55.29274 | 86.16147 | 1297 ft | 138 kts | 233° |
| 2026-05-05 21:02 | 55.28701 | 86.14790 | 1126 ft | 139 kts | 233° |
| 2026-05-05 21:02 | 55.28128 | 86.13432 | 963 ft | 139 kts | 233° |
| 2026-05-05 21:02 | 55.27548 | 86.12063 | 849 ft | 133 kts | 232° |
| 2026-05-05 21:02 | 55.27125 | 86.11063 | 860 ft | 68 kts | 234° |
| 2026-05-05 21:03 | 55.26905 | 86.10540 | 854 ft | 51 kts | 232° |
| 2026-05-05 21:03 | 55.26701 | 86.10066 | 848 ft | 41 kts | 233° |
| 2026-05-05 21:03 | 55.26697 | 86.09869 | 844 ft | 16 kts | 4° |
| 2026-05-05 21:03 | 55.26821 | 86.09925 | 842 ft | 20 kts | 18° |
| 2026-05-05 21:04 | 55.26956 | 86.10001 | 841 ft | 20 kts | 18° |
| 2026-05-05 21:04 | 55.27092 | 86.10078 | 841 ft | 20 kts | 17° |
| 2026-05-05 21:04 | 55.27233 | 86.10162 | 838 ft | 22 kts | 25° |
| 2026-05-05 21:04 | 55.27335 | 86.10357 | 841 ft | 20 kts | 55° |
| 2026-05-05 21:05 | 55.27428 | 86.10593 | 844 ft | 26 kts | 56° |
| 2026-05-05 21:05 | 55.27528 | 86.10848 | 847 ft | 24 kts | 54° |
| 2026-05-05 21:05 | 55.27623 | 86.11083 | 850 ft | 23 kts | 56° |
| 2026-05-05 21:05 | 55.27712 | 86.11312 | 852 ft | 22 kts | 55° |
| 2026-05-05 21:06 | 55.27803 | 86.11538 | 851 ft | 22 kts | 55° |
| 2026-05-05 21:06 | 55.27889 | 86.11762 | 851 ft | 23 kts | 57° |
| 2026-05-05 21:06 | 55.27956 | 86.11935 | 849 ft | 7 kts | 34° |
| 2026-05-05 21:06 | 55.27996 | 86.11903 | 849 ft | 6 kts | 323° |
| 2026-05-05 21:07 | 55.28007 | 86.11890 | 849 ft | 3 kts | 325° |
| 2026-05-05 21:07 | 55.28008 | 86.11889 | 849 ft | 0 kts | 325° |